Time;durP1;ratioP1;P1;durP2;ratioP2;P2;SDS_P1;SDS_P2;PMS_P1;PMS_P2;Temp;Humidity;BMP_temperature;BMP_pressure;BME280_temperature;BME280_humidity;BME280_pressure;Samples;Min_cycle;Max_cycle;Signal;HPM_P1;HPM_P2
2023/07/22 00:00:55;;;;;;;8.77;5.85;;;13.50;99.90;;;;;;5012301;28;20080;-83
2023/07/22 00:03:22;;;;;;;13.75;6.43;;;13.50;99.90;;;;;;5006487;28;20100;-83
2023/07/22 00:05:48;;;;;;;9.52;6.18;;;13.50;99.90;;;;;;5005462;28;20060;-83
2023/07/22 00:08:14;;;;;;;7.35;5.45;;;14.90;99.90;;;;;;5002542;28;20549;-83
2023/07/22 00:10:43;;;;;;;9.30;6.03;;;13.60;99.90;;;;;;5001402;28;20046;-83
2023/07/22 00:13:08;;;;;;;14.65;7.18;;;13.50;99.90;;;;;;5002365;28;20042;-83
2023/07/22 00:15:34;;;;;;;17.08;6.95;;;14.90;99.90;;;;;;5004076;28;20084;-83
2023/07/22 00:18:00;;;;;;;9.57;6.28;;;13.50;99.90;;;;;;4987584;28;20046;-83
2023/07/22 00:20:26;;;;;;;8.95;6.13;;;13.50;99.90;;;;;;4987688;28;20033;-84
2023/07/22 00:22:52;;;;;;;10.48;7.03;;;13.50;99.90;;;;;;5007700;28;20042;-83
2023/07/22 00:25:18;;;;;;;7.40;5.60;;;13.40;99.90;;;;;;5003916;28;20046;-83
2023/07/22 00:27:43;;;;;;;11.27;7.32;;;13.60;99.90;;;;;;5001337;28;20034;-83
2023/07/22 00:30:11;;;;;;;11.55;6.88;;;13.50;99.90;;;;;;4984984;28;20096;-83
2023/07/22 00:32:40;;;;;;;9.57;5.50;;;13.50;99.90;;;;;;4986982;28;20042;-83
2023/07/22 00:35:06;;;;;;;11.35;6.55;;;13.50;99.90;;;;;;5003154;28;20104;-83
2023/07/22 00:37:32;;;;;;;7.70;5.65;;;13.50;99.90;;;;;;5001330;28;20034;-83
2023/07/22 00:39:58;;;;;;;8.57;6.15;;;14.00;99.90;;;;;;5001150;28;20118;-82
2023/07/22 00:42:24;;;;;;;9.07;5.95;;;13.40;99.90;;;;;;4985925;28;20038;-83
2023/07/22 00:44:50;;;;;;;12.73;6.70;;;13.40;99.90;;;;;;4997523;28;20048;-83
2023/07/22 00:47:17;;;;;;;11.52;7.30;;;13.30;99.90;;;;;;5002518;28;20050;-82
2023/07/22 00:49:43;;;;;;;11.02;6.50;;;13.30;99.90;;;;;;5003790;28;20457;-82
2023/07/22 00:52:10;;;;;;;11.52;6.20;;;13.30;99.90;;;;;;5012821;28;20073;-83
2023/07/22 00:54:37;;;;;;;12.27;6.35;;;13.30;99.90;;;;;;5002327;28;20041;-83
2023/07/22 00:57:03;;;;;;;10.27;5.63;;;13.30;99.90;;;;;;5009560;28;20397;-84
2023/07/22 00:59:28;;;;;;;9.52;5.90;;;13.20;99.90;;;;;;5000711;28;20486;-82
2023/07/22 01:01:54;;;;;;;10.25;6.35;;;13.20;99.90;;;;;;5000418;28;20542;-81
2023/07/22 01:04:22;;;;;;;7.13;5.28;;;13.20;99.90;;;;;;5001772;28;20077;-82
2023/07/22 01:06:48;;;;;;;7.72;5.15;;;13.20;99.90;;;;;;5004221;28;20486;-83
2023/07/22 01:09:14;;;;;;;11.35;5.78;;;13.20;99.90;;;;;;4985211;28;20042;-82
2023/07/22 01:11:40;;;;;;;11.13;5.95;;;13.20;99.90;;;;;;5000005;28;20046;-83
2023/07/22 01:14:06;;;;;;;9.43;5.28;;;13.50;99.90;;;;;;5000724;28;20038;-83
2023/07/22 01:16:32;;;;;;;8.52;4.68;;;13.10;99.90;;;;;;4992394;28;20100;-83
2023/07/22 01:18:58;;;;;;;9.40;5.07;;;13.10;99.90;;;;;;4999855;28;20495;-83
2023/07/22 01:21:25;;;;;;;11.60;4.93;;;13.10;99.90;;;;;;4985370;28;20108;-83
2023/07/22 01:23:51;;;;;;;6.88;5.10;;;13.10;99.90;;;;;;5003815;28;20038;-83
2023/07/22 01:26:17;;;;;;;7.90;5.15;;;13.10;99.90;;;;;;4983484;28;20046;-83
2023/07/22 01:28:43;;;;;;;11.27;5.55;;;13.10;99.90;;;;;;5000393;28;20045;-83
2023/07/22 01:31:09;;;;;;;11.10;5.25;;;13.10;99.90;;;;;;4982419;28;20113;-83
2023/07/22 01:33:35;;;;;;;10.48;5.05;;;13.10;99.90;;;;;;5003725;28;20498;-83
2023/07/22 01:36:01;;;;;;;7.38;5.18;;;13.00;99.90;;;;;;4986467;28;20081;-83
2023/07/22 01:38:29;;;;;;;6.50;4.75;;;13.40;99.90;;;;;;5008602;28;20482;-84
2023/07/22 01:40:55;;;;;;;9.45;5.20;;;13.90;99.90;;;;;;5009794;28;20117;-83
2023/07/22 01:43:21;;;;;;;7.53;4.47;;;13.00;99.90;;;;;;5008641;28;20081;-84
2023/07/22 01:45:47;;;;;;;6.30;5.18;;;13.00;99.90;;;;;;4976552;28;20041;-83
2023/07/22 01:48:13;;;;;;;7.57;5.03;;;13.10;99.90;;;;;;5002828;28;20038;-83
2023/07/22 01:50:38;;;;;;;10.00;5.35;;;14.50;99.90;;;;;;5021112;28;20057;-83
2023/07/22 01:53:07;;;;;;;5.63;4.35;;;13.00;99.90;;;;;;5007858;28;20137;-84
2023/07/22 01:55:33;;;;;;;10.32;5.50;;;13.10;99.90;;;;;;4995738;28;20564;-84
2023/07/22 01:57:59;;;;;;;8.07;5.00;;;13.10;99.90;;;;;;5003623;28;20113;-83
2023/07/22 02:00:25;;;;;;;11.43;5.97;;;13.00;99.90;;;;;;5000610;28;20054;-83
2023/07/22 02:02:52;;;;;;;8.43;5.32;;;14.40;99.90;;;;;;4982492;28;20051;-83
2023/07/22 02:05:18;;;;;;;8.00;5.00;;;13.00;99.90;;;;;;5000924;28;20037;-83
2023/07/22 02:07:43;;;;;;;8.20;5.00;;;12.90;99.90;;;;;;5002874;28;20086;-84
2023/07/22 02:10:09;;;;;;;7.38;4.90;;;11.90;99.90;;;;;;5003229;28;20050;-84
2023/07/22 02:12:35;;;;;;;7.15;5.40;;;12.90;99.90;;;;;;4999916;28;20045;-84
2023/07/22 02:15:02;;;;;;;8.50;5.32;;;12.90;99.90;;;;;;4999056;28;20042;-84
2023/07/22 02:17:28;;;;;;;9.52;5.65;;;13.10;99.90;;;;;;4990944;28;20038;-84
2023/07/22 02:19:54;;;;;;;7.22;4.63;;;12.90;99.90;;;;;;4999956;28;20457;-84
2023/07/22 02:22:20;;;;;;;8.82;5.10;;;12.90;99.90;;;;;;5000247;28;20069;-84
2023/07/22 02:24:46;;;;;;;8.15;5.97;;;12.90;99.90;;;;;;5002891;28;20394;-84
2023/07/22 02:27:11;;;;;;;7.78;5.40;;;13.50;99.90;;;;;;5003274;28;20041;-84
2023/07/22 02:29:37;;;;;;;6.45;5.47;;;14.40;99.90;;;;;;4999034;28;20038;-84
2023/07/22 02:32:03;;;;;;;12.57;5.05;;;13.90;99.90;;;;;;5006500;28;20049;-84
2023/07/22 02:34:29;;;;;;;6.93;4.53;;;12.80;99.90;;;;;;5000300;28;20077;-84
2023/07/22 02:36:54;;;;;;;12.23;5.97;;;12.70;99.90;;;;;;5002042;28;20478;-84
2023/07/22 02:39:20;;;;;;;9.63;5.07;;;14.60;99.90;;;;;;5004233;28;20077;-84
2023/07/22 02:41:46;;;;;;;7.65;5.20;;;12.70;99.90;;;;;;4988402;28;20492;-84
2023/07/22 02:44:12;;;;;;;10.52;5.55;;;12.70;99.90;;;;;;5006199;28;20591;-84
2023/07/22 02:46:38;;;;;;;8.50;5.20;;;12.70;99.90;;;;;;5003507;28;20050;-84
2023/07/22 02:49:05;;;;;;;8.70;4.90;;;12.70;99.90;;;;;;5002341;28;20051;-83
2023/07/22 02:51:30;;;;;;;9.90;5.32;;;12.70;99.90;;;;;;4987928;28;20517;-84
2023/07/22 02:53:56;;;;;;;7.05;4.78;;;14.10;99.90;;;;;;4988888;28;20041;-84
2023/07/22 02:56:23;;;;;;;7.65;4.55;;;12.70;99.90;;;;;;5004764;28;20509;-83
2023/07/22 02:58:49;;;;;;;6.63;4.57;;;12.70;99.90;;;;;;4985395;28;20546;-83
2023/07/22 03:01:15;;;;;;;7.43;4.53;;;12.70;99.90;;;;;;5002974;28;20054;-84
2023/07/22 03:03:41;;;;;;;8.38;4.88;;;12.70;99.90;;;;;;4987930;28;20358;-84
2023/07/22 03:06:07;;;;;;;5.75;4.45;;;13.10;99.90;;;;;;5005872;28;20050;-83
2023/07/22 03:08:33;;;;;;;5.82;4.25;;;14.00;99.90;;;;;;4986755;28;20038;-83
2023/07/22 03:10:59;;;;;;;9.40;5.22;;;12.70;99.90;;;;;;5002130;28;20046;-83
2023/07/22 03:13:24;;;;;;;7.43;4.93;;;12.60;99.90;;;;;;5003639;28;20073;-83
2023/07/22 03:15:50;;;;;;;5.75;4.47;;;12.60;99.90;;;;;;5006480;28;20394;-83
2023/07/22 03:18:16;;;;;;;6.18;4.32;;;12.60;99.90;;;;;;4997763;28;20049;-83
2023/07/22 03:20:42;;;;;;;7.35;4.57;;;12.60;99.90;;;;;;5016852;28;20042;-84
2023/07/22 03:23:07;;;;;;;5.90;4.22;;;12.60;99.90;;;;;;5004452;28;20046;-83
2023/07/22 03:25:34;;;;;;;4.95;4.03;;;12.60;99.90;;;;;;5010928;28;20692;-84
2023/07/22 03:28:06;;;;;;;7.32;4.65;;;12.60;99.90;;;;;;4997394;28;20679;-84
2023/07/22 03:30:31;;;;;;;9.23;5.38;;;12.50;99.90;;;;;;5006206;28;20049;-83
2023/07/22 03:32:57;;;;;;;12.18;5.32;;;12.60;99.90;;;;;;5001544;28;20038;-84
2023/07/22 03:35:23;;;;;;;8.27;5.20;;;12.50;99.90;;;;;;5010118;28;20042;-84
2023/07/22 03:37:49;;;;;;;7.13;5.13;;;12.50;99.90;;;;;;5001555;28;20418;-84
2023/07/22 03:40:19;;;;;;;6.75;5.15;;;12.50;99.90;;;;;;5003027;28;20383;-84
2023/07/22 03:42:50;;;;;;;6.95;4.82;;;12.40;99.90;;;;;;5005484;28;20514;-84
2023/07/22 03:45:16;;;;;;;7.38;5.47;;;12.50;99.90;;;;;;4979887;28;20093;-84
2023/07/22 03:47:45;;;;;;;8.98;5.05;;;12.50;99.90;;;;;;5004154;28;20057;-84
2023/07/22 03:50:10;;;;;;;7.50;4.82;;;12.50;99.90;;;;;;4987733;28;20055;-84
2023/07/22 03:52:36;;;;;;;6.78;5.15;;;12.50;99.90;;;;;;5002959;28;20405;-84
2023/07/22 03:55:02;;;;;;;7.13;5.20;;;13.60;99.90;;;;;;5007099;28;20497;-84
2023/07/22 03:57:28;;;;;;;6.90;4.97;;;12.60;99.90;;;;;;5004759;28;20041;-85
2023/07/22 03:59:54;;;;;;;8.77;5.20;;;12.60;99.90;;;;;;5001137;28;20050;-84
2023/07/22 04:02:20;;;;;;;5.85;4.70;;;12.60;99.90;;;;;;5001783;28;20141;-84
2023/07/22 04:04:46;;;;;;;12.05;5.25;;;12.70;99.90;;;;;;5004986;28;20123;-84
2023/07/22 04:07:12;;;;;;;8.30;5.28;;;13.50;99.90;;;;;;5004800;28;20048;-83
2023/07/22 04:09:37;;;;;;;9.15;5.63;;;12.90;99.90;;;;;;5003554;28;20042;-84
2023/07/22 04:12:03;;;;;;;7.60;5.57;;;12.70;99.90;;;;;;4984083;28;20046;-84
2023/07/22 04:14:29;;;;;;;10.85;5.38;;;12.70;99.90;;;;;;5001128;28;20125;-83
2023/07/22 04:16:54;;;;;;;8.93;5.90;;;13.40;99.90;;;;;;5004890;28;20445;-83
2023/07/22 04:19:20;;;;;;;12.57;6.00;;;12.70;99.90;;;;;;5004638;28;20050;-84
2023/07/22 04:21:46;;;;;;;9.85;6.03;;;12.70;99.90;;;;;;5006855;28;20069;-84
2023/07/22 04:24:11;;;;;;;8.77;6.47;;;12.70;99.90;;;;;;4983568;28;20047;-83
2023/07/22 04:26:37;;;;;;;7.13;5.32;;;12.70;99.90;;;;;;5003128;28;20050;-84
2023/07/22 04:29:03;;;;;;;9.95;6.07;;;12.70;99.90;;;;;;4986646;28;20180;-83
2023/07/22 04:31:28;;;;;;;8.48;5.35;;;14.10;99.90;;;;;;5004717;28;20052;-83
2023/07/22 04:33:54;;;;;;;9.07;6.57;;;14.30;99.90;;;;;;5004013;28;20037;-82
2023/07/22 04:36:20;;;;;;;10.35;6.68;;;11.50;99.90;;;;;;5004326;28;20053;-83
2023/07/22 04:38:45;;;;;;;10.20;6.22;;;12.70;99.90;;;;;;4996552;28;20046;-83
2023/07/22 04:41:11;;;;;;;9.85;6.47;;;12.70;99.90;;;;;;5004008;28;20417;-84
2023/07/22 04:43:37;;;;;;;8.27;5.60;;;12.70;99.90;;;;;;5003497;28;20041;-84
2023/07/22 04:46:02;;;;;;;9.05;6.30;;;12.80;99.90;;;;;;4984951;28;20046;-83
2023/07/22 04:48:29;;;;;;;11.55;6.97;;;14.20;99.90;;;;;;5023510;28;20045;-82
2023/07/22 04:50:55;;;;;;;8.90;6.68;;;12.70;99.90;;;;;;4983241;28;20049;-82
2023/07/22 04:53:21;;;;;;;11.13;7.28;;;12.80;99.90;;;;;;5001453;28;20396;-84
2023/07/22 04:55:46;;;;;;;10.40;7.22;;;12.80;99.90;;;;;;4984974;28;20046;-84
2023/07/22 04:58:14;;;;;;;9.40;6.53;;;12.90;99.90;;;;;;5004290;28;20037;-84
2023/07/22 05:00:42;;;;;;;11.18;6.55;;;12.90;99.90;;;;;;5001796;28;20069;-84
2023/07/22 05:03:07;;;;;;;10.60;6.90;;;13.50;99.90;;;;;;5000139;28;20494;-83
2023/07/22 05:05:33;;;;;;;10.27;6.55;;;12.90;99.90;;;;;;4983800;28;20050;-83
2023/07/22 05:08:01;;;;;;;8.15;6.22;;;12.90;99.90;;;;;;4989314;28;20053;-84
2023/07/22 05:10:28;;;;;;;10.85;6.40;;;12.90;99.90;;;;;;5012705;28;20134;-84
2023/07/22 05:12:54;;;;;;;11.38;7.22;;;12.90;99.90;;;;;;4991236;28;20049;-84
2023/07/22 05:15:20;;;;;;;10.30;6.95;;;12.90;99.90;;;;;;4967880;28;20043;-84
2023/07/22 05:17:46;;;;;;;11.70;6.57;;;12.90;99.90;;;;;;4985650;28;20053;-82
2023/07/22 05:20:15;;;;;;;10.27;6.32;;;13.00;99.90;;;;;;5004014;28;20053;-84
2023/07/22 05:22:41;;;;;;;10.88;6.78;;;13.00;99.90;;;;;;5010023;28;20098;-83
2023/07/22 05:25:08;;;;;;;12.52;7.15;;;14.50;99.90;;;;;;5003000;28;20489;-83
2023/07/22 05:27:33;;;;;;;11.35;6.97;;;13.00;99.90;;;;;;4995913;28;20483;-84
2023/07/22 05:30:00;;;;;;;12.48;6.80;;;11.50;99.90;;;;;;4979728;28;20100;-84
2023/07/22 05:32:26;;;;;;;10.40;7.47;;;13.10;99.90;;;;;;4985933;28;20042;-83
2023/07/22 05:34:51;;;;;;;12.07;8.20;;;13.10;99.90;;;;;;5001267;28;20048;-83
2023/07/22 05:37:17;;;;;;;13.65;7.85;;;13.10;99.90;;;;;;4982204;28;20054;-83
2023/07/22 05:39:43;;;;;;;12.68;8.02;;;14.50;99.90;;;;;;5001819;28;20065;-84
2023/07/22 05:42:08;;;;;;;14.90;8.32;;;12.30;99.90;;;;;;4986203;28;20064;-83
2023/07/22 05:44:34;;;;;;;11.80;8.23;;;13.20;99.90;;;;;;4995026;28;20104;-84
2023/07/22 05:47:00;;;;;;;11.50;7.70;;;13.20;99.90;;;;;;5003479;28;20458;-83
2023/07/22 05:49:25;;;;;;;11.88;8.25;;;13.20;99.90;;;;;;5003562;28;20034;-84
2023/07/22 05:51:51;;;;;;;11.80;8.25;;;14.80;99.90;;;;;;5002581;28;20042;-83
2023/07/22 05:54:17;;;;;;;13.20;8.82;;;13.30;99.90;;;;;;5003705;28;20038;-84
2023/07/22 05:56:42;;;;;;;14.23;8.55;;;13.40;99.90;;;;;;4987675;28;20463;-83
2023/07/22 05:59:08;;;;;;;12.30;8.13;;;13.50;99.90;;;;;;5004097;28;20054;-83
2023/07/22 06:01:34;;;;;;;12.02;7.75;;;13.30;99.90;;;;;;5005488;28;20057;-83
2023/07/22 06:04:00;;;;;;;13.10;8.68;;;13.40;99.90;;;;;;5001416;28;20050;-83
2023/07/22 06:06:25;;;;;;;18.00;8.95;;;13.50;99.90;;;;;;4999225;28;20043;-83
2023/07/22 06:08:51;;;;;;;14.10;9.10;;;13.60;99.90;;;;;;5001610;28;20042;-84
2023/07/22 06:11:18;;;;;;;12.80;9.90;;;13.60;99.90;;;;;;4988295;28;20042;-84
2023/07/22 06:13:44;;;;;;;20.77;14.23;;;14.20;99.90;;;;;;4988820;28;20081;-84
2023/07/22 06:16:10;;;;;;;17.75;10.50;;;13.70;99.90;;;;;;5006908;28;20490;-84
2023/07/22 06:18:36;;;;;;;15.60;10.10;;;13.80;99.90;;;;;;5004473;28;20103;-84
2023/07/22 06:21:02;;;;;;;16.95;11.07;;;13.80;99.90;;;;;;5011190;28;20575;-84
2023/07/22 06:23:28;;;;;;;15.00;10.38;;;13.80;99.90;;;;;;5009595;28;20437;-84
2023/07/22 06:25:53;;;;;;;17.85;9.80;;;15.50;99.90;;;;;;4988238;28;20045;-84
2023/07/22 06:28:19;;;;;;;15.25;10.68;;;13.90;99.90;;;;;;5003694;28;20121;-84
2023/07/22 06:30:44;;;;;;;14.00;10.10;;;15.50;99.90;;;;;;5003791;28;20046;-84
2023/07/22 06:33:10;;;;;;;15.73;11.50;;;14.70;99.90;;;;;;5006804;28;20486;-84
2023/07/22 06:35:36;;;;;;;16.65;10.98;;;14.10;99.90;;;;;;5006836;28;20057;-84
2023/07/22 06:38:01;;;;;;;16.70;11.02;;;14.10;99.90;;;;;;5005026;28;20406;-85
2023/07/22 06:40:27;;;;;;;17.25;11.70;;;14.20;99.90;;;;;;4986742;28;20081;-84
2023/07/22 06:42:53;;;;;;;16.67;11.25;;;14.30;99.90;;;;;;4987503;28;20458;-84
2023/07/22 06:45:18;;;;;;;17.77;11.65;;;14.40;99.90;;;;;;5007078;28;20073;-83
2023/07/22 06:47:45;;;;;;;14.18;10.65;;;14.40;99.90;;;;;;5008840;28;20034;-84
2023/07/22 06:50:13;;;;;;;13.90;11.18;;;14.80;99.90;;;;;;4984169;28;20050;-84
2023/07/22 06:52:40;;;;;;;17.15;10.02;;;14.50;99.90;;;;;;4987225;28;20106;-83
2023/07/22 06:55:09;;;;;;;14.07;10.88;;;14.60;99.90;;;;;;5014655;28;20101;-82
2023/07/22 06:57:34;;;;;;;17.63;10.80;;;14.70;99.90;;;;;;4987913;28;20060;-83
2023/07/22 07:00:00;;;;;;;15.60;10.02;;;14.70;99.90;;;;;;5005588;28;20054;-83
2023/07/22 07:02:27;;;;;;;14.82;10.18;;;14.80;99.90;;;;;;5007409;28;20405;-85
2023/07/22 07:04:54;;;;;;;13.98;10.65;;;14.80;99.90;;;;;;5002863;28;20086;-84
2023/07/22 07:07:19;;;;;;;14.90;10.00;;;14.90;99.90;;;;;;5006305;28;20085;-83
2023/07/22 07:09:45;;;;;;;14.55;10.32;;;14.90;99.90;;;;;;4989917;28;20043;-84
2023/07/22 07:12:11;;;;;;;12.93;9.38;;;14.90;99.90;;;;;;5003446;28;20049;-84
2023/07/22 07:14:37;;;;;;;14.27;10.27;;;16.10;99.90;;;;;;5002379;28;20038;-83
2023/07/22 07:17:03;;;;;;;13.40;9.68;;;15.00;99.90;;;;;;4993018;28;20188;-83
2023/07/22 07:19:28;;;;;;;14.15;8.85;;;15.00;99.90;;;;;;4991187;28;20038;-83
2023/07/22 07:21:54;;;;;;;13.77;9.48;;;15.00;99.90;;;;;;5005789;28;20049;-84
2023/07/22 07:24:20;;;;;;;14.10;10.43;;;15.00;99.90;;;;;;5001133;28;20038;-83
2023/07/22 07:26:49;;;;;;;15.15;10.13;;;15.10;99.90;;;;;;4986118;28;20046;-83
2023/07/22 07:29:14;;;;;;;15.25;10.93;;;15.10;99.90;;;;;;4977340;28;20569;-83
2023/07/22 07:31:40;;;;;;;14.70;10.18;;;15.10;99.90;;;;;;5002755;28;20125;-83
2023/07/22 07:34:06;;;;;;;16.75;10.40;;;15.10;99.90;;;;;;5005170;28;20085;-83
2023/07/22 07:36:33;;;;;;;15.35;10.82;;;14.80;99.90;;;;;;5004706;28;20274;-83
2023/07/22 07:38:59;;;;;;;14.75;10.07;;;15.20;99.90;;;;;;5005664;28;20078;-83
2023/07/22 07:41:24;;;;;;;13.68;9.43;;;15.20;99.90;;;;;;5002610;28;20459;-84
2023/07/22 07:43:51;;;;;;;15.70;10.93;;;15.20;99.90;;;;;;4968320;28;20041;-84
2023/07/22 07:46:29;;;;;;;15.38;10.60;;;15.30;99.90;;;;;;5009844;28;20070;-82
2023/07/22 07:48:58;;;;;;;14.75;9.77;;;15.30;99.90;;;;;;5002115;28;20487;-83
2023/07/22 07:51:26;;;;;;;13.20;9.20;;;15.40;99.90;;;;;;5006019;28;20490;-83
2023/07/22 07:53:53;;;;;;;13.75;10.45;;;15.40;99.90;;;;;;4987798;28;20046;-84
2023/07/22 07:56:20;;;;;;;17.92;12.77;;;15.50;99.90;;;;;;4998713;28;20073;-84
2023/07/22 07:58:47;;;;;;;12.80;8.68;;;15.50;99.90;;;;;;5004584;28;20038;-84
2023/07/22 08:01:14;;;;;;;10.25;8.85;;;15.50;99.90;;;;;;4987958;28;20081;-84
2023/07/22 08:03:41;;;;;;;10.20;7.97;;;15.50;99.90;;;;;;5004825;28;20054;-84
2023/07/22 08:06:08;;;;;;;14.32;9.25;;;15.50;99.90;;;;;;5002704;28;20046;-83
2023/07/22 08:08:34;;;;;;;11.73;8.55;;;15.60;99.90;;;;;;5001876;28;20097;-83
2023/07/22 08:11:03;;;;;;;15.95;9.07;;;15.60;99.90;;;;;;5002300;28;20050;-84
2023/07/22 08:13:31;;;;;;;14.13;9.57;;;15.60;99.90;;;;;;4986774;28;20121;-83
2023/07/22 08:15:57;;;;;;;11.93;9.20;;;15.70;99.90;;;;;;5006310;28;20042;-83
2023/07/22 08:18:23;;;;;;;9.23;7.70;;;15.80;99.90;;;;;;5002770;28;20339;-82
2023/07/22 08:20:51;;;;;;;15.20;9.38;;;15.80;99.90;;;;;;5000785;28;20046;-84
2023/07/22 08:23:16;;;;;;;10.98;8.80;;;15.80;99.90;;;;;;4986670;28;20050;-84
2023/07/22 08:25:42;;;;;;;12.18;8.52;;;16.00;99.90;;;;;;5006215;28;20359;-83
2023/07/22 08:28:08;;;;;;;14.98;9.02;;;16.00;99.90;;;;;;5002992;28;20042;-84
2023/07/22 08:30:34;;;;;;;14.20;9.55;;;16.10;99.90;;;;;;5006529;28;20135;-83
2023/07/22 08:32:59;;;;;;;15.00;12.60;;;16.10;99.90;;;;;;5005204;28;20132;-84
2023/07/22 08:35:26;;;;;;;9.60;8.48;;;16.10;99.90;;;;;;5008609;28;20085;-83
2023/07/22 08:37:52;;;;;;;11.82;8.45;;;16.20;99.90;;;;;;5012333;28;20086;-83
2023/07/22 08:40:18;;;;;;;12.20;8.55;;;16.20;99.90;;;;;;5005709;28;20046;-83
2023/07/22 08:42:46;;;;;;;11.23;7.53;;;16.30;99.90;;;;;;4986944;28;20405;-83
2023/07/22 08:45:13;;;;;;;12.68;9.15;;;16.40;99.90;;;;;;5003505;28;20034;-83
2023/07/22 08:47:45;;;;;;;8.35;7.38;;;16.40;99.90;;;;;;5001146;28;20042;-83
2023/07/22 08:50:14;;;;;;;11.02;7.88;;;16.40;99.90;;;;;;5002827;28;20043;-82
2023/07/22 08:52:40;;;;;;;11.07;7.22;;;16.50;99.90;;;;;;5005214;28;20075;-82
2023/07/22 08:55:08;;;;;;;8.30;7.10;;;16.60;99.90;;;;;;5002757;28;20034;-82
2023/07/22 08:57:35;;;;;;;17.95;8.15;;;16.60;99.90;;;;;;5001054;28;20492;-82
2023/07/22 09:00:01;;;;;;;11.63;7.72;;;17.90;99.90;;;;;;4983161;28;20108;-82
2023/07/22 09:02:28;;;;;;;13.60;7.65;;;16.70;99.90;;;;;;4958609;28;20058;-81
2023/07/22 09:04:56;;;;;;;10.85;7.75;;;16.70;99.90;;;;;;4983856;28;20046;-82
2023/07/22 09:07:22;;;;;;;11.57;8.77;;;16.70;99.90;;;;;;5010390;28;20045;-82
2023/07/22 09:09:48;;;;;;;11.65;7.97;;;16.70;99.90;;;;;;5006777;28;20116;-81
2023/07/22 09:12:16;;;;;;;12.60;9.07;;;16.70;99.90;;;;;;5006666;28;20157;-81
2023/07/22 09:14:44;;;;;;;15.85;9.93;;;16.70;99.90;;;;;;5018478;28;20045;-80
2023/07/22 09:17:17;;;;;;;14.60;9.68;;;16.70;99.90;;;;;;5003144;28;20506;-80
2023/07/22 09:19:43;;;;;;;17.05;10.40;;;16.50;99.90;;;;;;5004158;28;20041;-79
2023/07/22 09:22:12;;;;;;;12.60;8.82;;;16.40;99.90;;;;;;5003407;28;20476;-79
2023/07/22 09:24:37;;;;;;;16.77;11.63;;;16.70;99.90;;;;;;4962689;28;20047;-80
2023/07/22 09:27:03;;;;;;;24.77;18.25;;;16.10;99.90;;;;;;4989522;28;20049;-80
2023/07/22 09:29:34;;;;;;;20.17;14.80;;;16.00;99.90;;;;;;4999677;28;20056;-80
2023/07/22 09:32:00;;;;;;;16.10;11.50;;;16.00;99.90;;;;;;4966409;28;20417;-79
2023/07/22 09:34:29;;;;;;;13.20;9.27;;;16.00;99.90;;;;;;5002204;28;20042;-80
2023/07/22 09:36:56;;;;;;;11.93;8.82;;;15.90;99.90;;;;;;5003664;28;20074;-80
2023/07/22 09:39:23;;;;;;;11.73;9.07;;;15.90;99.90;;;;;;5004149;28;20485;-80
2023/07/22 09:41:49;;;;;;;12.57;9.73;;;15.90;99.90;;;;;;5009117;28;20053;-79
2023/07/22 09:44:17;;;;;;;16.70;10.65;;;16.50;99.90;;;;;;5005967;28;20034;-81
2023/07/22 09:46:50;;;;;;;12.85;10.00;;;15.90;99.90;;;;;;4999657;28;20121;-80
2023/07/22 09:49:18;;;;;;;14.73;10.52;;;16.00;99.90;;;;;;4969712;28;20034;-81
2023/07/22 09:51:43;;;;;;;12.18;10.18;;;16.00;99.90;;;;;;4983615;28;20165;-80
2023/07/22 09:54:10;;;;;;;13.60;10.02;;;15.40;99.90;;;;;;5002415;28;20093;-80
2023/07/22 09:56:49;;;;;;;14.18;10.38;;;16.10;99.90;;;;;;4975322;28;20050;-80
2023/07/22 09:59:18;;;;;;;12.90;9.43;;;16.10;99.90;;;;;;4982585;28;20406;-80
2023/07/22 10:01:46;;;;;;;15.50;11.90;;;16.10;99.90;;;;;;5004303;28;20062;-80
2023/07/22 10:04:16;;;;;;;16.15;12.48;;;16.10;99.90;;;;;;4995477;28;20441;-80
2023/07/22 10:06:43;;;;;;;12.32;9.40;;;16.10;99.90;;;;;;5004138;28;20579;-79
2023/07/22 10:09:12;;;;;;;11.27;8.68;;;16.00;99.90;;;;;;4986701;28;20049;-79
2023/07/22 10:11:39;;;;;;;9.02;7.53;;;16.00;99.90;;;;;;4974042;28;20046;-80
2023/07/22 10:14:08;;;;;;;11.07;8.32;;;16.00;99.90;;;;;;4982213;28;20038;-80
2023/07/22 10:16:35;;;;;;;8.48;6.15;;;16.00;99.90;;;;;;5006943;28;20041;-81
2023/07/22 10:19:03;;;;;;;11.32;6.80;;;16.00;99.90;;;;;;5008813;28;20045;-79
2023/07/22 10:21:29;;;;;;;8.35;6.60;;;17.00;99.90;;;;;;5002780;28;20104;-80
2023/07/22 10:23:55;;;;;;;7.97;6.22;;;16.60;99.90;;;;;;4999924;28;20080;-80
2023/07/22 10:26:21;;;;;;;7.78;5.47;;;15.80;99.90;;;;;;4982585;28;20042;-81
2023/07/22 10:28:47;;;;;;;9.63;5.75;;;16.00;99.90;;;;;;4998651;28;20134;-80
2023/07/22 10:31:18;;;;;;;7.78;5.80;;;15.90;99.90;;;;;;4999732;28;20088;-80
2023/07/22 10:33:46;;;;;;;6.72;5.20;;;15.90;99.90;;;;;;4991478;28;20034;-80
2023/07/22 10:36:17;;;;;;;7.72;5.47;;;15.90;99.90;;;;;;4999344;28;20049;-80
2023/07/22 10:38:43;;;;;;;7.50;5.95;;;15.90;99.90;;;;;;4981904;28;20034;-79
2023/07/22 10:41:16;;;;;;;6.45;5.00;;;16.20;99.90;;;;;;5015161;28;20126;-81
2023/07/22 10:43:57;;;;;;;5.85;5.25;;;15.90;99.90;;;;;;4996342;28;20050;-80
2023/07/22 10:46:33;;;;;;;6.45;5.50;;;15.90;99.90;;;;;;4983314;28;20544;-80
2023/07/22 10:49:41;;;;;;;7.75;4.97;;;15.90;99.90;;;;;;5002447;28;20038;-79
2023/07/22 10:52:10;;;;;;;7.93;4.68;;;15.90;99.90;;;;;;4986655;28;20054;-81
2023/07/22 10:54:36;;;;;;;6.82;5.95;;;15.80;99.90;;;;;;4983955;28;20047;-81
2023/07/22 10:57:17;;;;;;;8.07;5.60;;;15.80;99.90;;;;;;5002961;28;20057;-81
2023/07/22 10:59:50;;;;;;;6.28;4.82;;;15.80;99.90;;;;;;4984889;28;20050;-81
2023/07/22 11:02:27;;;;;;;7.28;5.90;;;15.70;99.90;;;;;;5002190;28;20193;-81
2023/07/22 11:04:56;;;;;;;8.85;5.88;;;15.70;99.90;;;;;;4978362;28;20157;-80
2023/07/22 11:07:44;;;;;;;8.43;5.88;;;15.70;99.90;;;;;;5003284;28;20043;-80
2023/07/22 11:10:18;;;;;;;6.55;5.60;;;15.80;99.90;;;;;;5005802;28;20057;-81
2023/07/22 11:12:45;;;;;;;8.85;5.63;;;15.70;99.90;;;;;;5002584;28;20510;-81
2023/07/22 11:15:11;;;;;;;7.25;5.53;;;15.80;99.90;;;;;;5001616;28;20041;-81
2023/07/22 11:17:37;;;;;;;8.35;5.93;;;15.80;99.90;;;;;;5004872;28;20050;-80
2023/07/22 11:20:03;;;;;;;7.47;6.10;;;15.80;99.90;;;;;;5006304;28;20103;-79
2023/07/22 11:22:30;;;;;;;6.80;5.97;;;15.70;99.90;;;;;;4987989;28;20160;-81
2023/07/22 11:24:57;;;;;;;8.63;6.60;;;15.70;99.90;;;;;;5005431;28;20524;-82
2023/07/22 11:27:24;;;;;;;8.68;6.80;;;16.40;99.90;;;;;;5005519;28;20513;-81
2023/07/22 11:29:49;;;;;;;8.18;7.30;;;15.70;99.90;;;;;;5001526;28;20054;-79
2023/07/22 11:32:23;;;;;;;7.20;6.15;;;16.50;99.90;;;;;;4984608;28;20505;-80
2023/07/22 11:34:50;;;;;;;9.32;7.22;;;15.70;99.90;;;;;;4994237;28;20035;-79
2023/07/22 11:37:18;;;;;;;11.60;8.30;;;15.70;99.90;;;;;;5001799;28;20073;-80
2023/07/22 11:39:44;;;;;;;9.63;8.68;;;15.70;99.90;;;;;;5006126;28;20050;-80
2023/07/22 11:42:11;;;;;;;9.57;8.55;;;16.30;99.90;;;;;;4971822;28;20062;-82
2023/07/22 11:44:38;;;;;;;10.77;9.13;;;15.70;99.90;;;;;;5007885;28;20041;-83
2023/07/22 11:47:07;;;;;;;12.45;8.98;;;15.70;99.90;;;;;;4965592;28;20051;-80
2023/07/22 11:49:34;;;;;;;10.48;8.82;;;15.70;99.90;;;;;;5001172;28;20471;-82
2023/07/22 11:52:11;;;;;;;10.32;9.27;;;15.70;99.90;;;;;;4987343;28;20144;-82
2023/07/22 11:54:43;;;;;;;9.90;9.00;;;15.70;99.90;;;;;;4986647;28;20053;-81
2023/07/22 11:57:19;;;;;;;10.52;9.50;;;15.80;99.90;;;;;;4984200;28;20097;-82
2023/07/22 11:59:46;;;;;;;11.43;9.45;;;14.50;99.90;;;;;;5009902;28;20092;-80
2023/07/22 12:02:26;;;;;;;11.57;10.35;;;15.80;99.90;;;;;;4993646;28;20092;-81
2023/07/22 12:05:19;;;;;;;12.60;10.18;;;15.80;99.90;;;;;;5001989;28;20049;-82
2023/07/22 12:07:45;;;;;;;12.10;10.82;;;15.80;99.90;;;;;;5014248;28;20094;-80
2023/07/22 12:10:11;;;;;;;15.10;12.15;;;15.80;99.90;;;;;;4998040;28;20049;-81
2023/07/22 12:12:42;;;;;;;11.82;10.70;;;14.70;99.90;;;;;;4986312;28;20049;-83
2023/07/22 12:15:17;;;;;;;11.27;10.18;;;15.80;99.90;;;;;;5001395;28;20692;-80
2023/07/22 12:17:56;;;;;;;12.98;10.77;;;16.00;99.90;;;;;;5003502;28;20061;-81
2023/07/22 12:20:29;;;;;;;11.07;9.98;;;15.80;99.90;;;;;;5004576;28;20052;-81
2023/07/22 12:22:56;;;;;;;11.07;9.93;;;15.90;99.90;;;;;;4976207;28;20046;-82
2023/07/22 12:25:22;;;;;;;9.85;8.95;;;15.90;99.90;;;;;;5000515;28;20112;-82
2023/07/22 12:27:47;;;;;;;11.43;10.25;;;15.90;99.90;;;;;;5003982;28;20039;-80
2023/07/22 12:30:15;;;;;;;9.80;8.80;;;15.90;99.90;;;;;;5004988;28;20449;-81
2023/07/22 12:32:40;;;;;;;10.35;9.23;;;15.90;99.90;;;;;;5002684;28;20510;-81
2023/07/22 12:35:07;;;;;;;11.57;8.85;;;15.90;99.90;;;;;;4985071;28;20122;-81
2023/07/22 12:37:33;;;;;;;11.52;10.43;;;15.90;99.90;;;;;;5001438;28;20042;-82